Time;durP1;ratioP1;P1;durP2;ratioP2;P2;SDS_P1;SDS_P2;PMS_P1;PMS_P2;Temp;Humidity;BMP_temperature;BMP_pressure;BME280_temperature;BME280_humidity;BME280_pressure;Samples;Min_cycle;Max_cycle;Signal;HPM_P1;HPM_P2
2021/01/14 00:00:26;;;;;;;0.95;0.85;;;6.00;99.90;;;;;;5068979;28;20229;-58
2021/01/14 00:02:51;;;;;;;1.10;0.90;;;5.90;99.90;;;;;;5067908;28;20688;-57
2021/01/14 00:05:17;;;;;;;1.00;0.90;;;6.10;99.90;;;;;;5067991;28;20189;-57
2021/01/14 00:07:42;;;;;;;1.00;0.83;;;5.70;99.90;;;;;;5067034;28;20189;-57
2021/01/14 00:10:10;;;;;;;1.03;0.93;;;5.50;99.90;;;;;;5060323;28;20188;-58
2021/01/14 00:12:37;;;;;;;1.15;0.90;;;5.60;99.90;;;;;;5067408;28;20629;-56
2021/01/14 00:15:04;;;;;;;1.10;1.00;;;5.50;99.90;;;;;;5067999;28;20193;-57
2021/01/14 00:17:31;;;;;;;0.90;0.90;;;5.80;99.90;;;;;;5067687;28;20193;-57
2021/01/14 00:19:56;;;;;;;1.17;1.05;;;5.40;99.90;;;;;;5066834;28;20233;-58
2021/01/14 00:22:22;;;;;;;1.50;1.00;;;5.50;99.90;;;;;;5067322;28;20245;-58
2021/01/14 00:24:48;;;;;;;1.60;0.90;;;5.50;99.90;;;;;;5053733;28;20188;-58
2021/01/14 00:27:13;;;;;;;1.07;0.97;;;5.40;99.90;;;;;;5067617;28;20217;-58
2021/01/14 00:29:39;;;;;;;1.10;0.93;;;5.70;99.90;;;;;;5067527;28;20203;-58
2021/01/14 00:32:04;;;;;;;1.10;1.00;;;5.30;99.90;;;;;;5069043;28;20250;-58
2021/01/14 00:34:31;;;;;;;1.03;0.90;;;5.50;99.90;;;;;;5071438;28;20193;-57
2021/01/14 00:39:40;;;;;;;1.70;1.10;;;5.50;99.90;;;;;;5071787;28;20336;-57
2021/01/14 00:42:06;;;;;;;1.13;1.03;;;5.40;99.90;;;;;;5072294;28;20214;-58
2021/01/14 00:44:32;;;;;;;1.20;1.10;;;5.80;99.90;;;;;;5063736;28;20650;-58
2021/01/14 00:46:58;;;;;;;0.87;0.87;;;5.30;99.90;;;;;;5072309;28;20206;-57
2021/01/14 00:49:25;;;;;;;1.40;1.30;;;5.60;99.90;;;;;;5071173;28;20208;-58
2021/01/14 00:51:50;;;;;;;1.20;0.95;;;5.20;99.90;;;;;;5070957;28;20245;-58
2021/01/14 00:54:16;;;;;;;1.63;1.30;;;5.40;99.90;;;;;;5071101;28;20190;-59
2021/01/14 00:56:42;;;;;;;1.50;1.40;;;4.80;99.90;;;;;;5070034;28;20443;-59
2021/01/14 00:59:08;;;;;;;1.33;1.23;;;5.40;99.90;;;;;;5070677;28;20452;-59
2021/01/14 01:01:34;;;;;;;2.00;1.70;;;5.40;99.90;;;;;;5072002;28;20436;-58
2021/01/14 01:04:01;;;;;;;1.67;1.05;;;5.40;99.90;;;;;;5070797;28;20213;-58
2021/01/14 01:06:35;;;;;;;1.45;1.35;;;5.50;99.90;;;;;;5070945;28;20357;-58
2021/01/14 01:09:02;;;;;;;2.00;1.80;;;5.20;99.90;;;;;;5067189;28;20207;-59
2021/01/14 01:11:28;;;;;;;1.73;1.60;;;5.40;99.90;;;;;;5066878;28;20273;-58
2021/01/14 01:13:54;;;;;;;1.63;1.53;;;5.60;99.90;;;;;;5070477;28;20322;-58
2021/01/14 01:16:20;;;;;;;2.65;2.10;;;5.40;99.90;;;;;;5070054;28;20195;-57
2021/01/14 01:18:46;;;;;;;2.30;2.10;;;5.50;99.90;;;;;;5071067;28;20223;-58
2021/01/14 01:21:13;;;;;;;1.98;1.80;;;5.60;99.90;;;;;;5070940;28;20183;-57
2021/01/14 01:23:38;;;;;;;2.65;2.45;;;5.40;99.90;;;;;;5070904;28;20370;-57
2021/01/14 01:26:04;;;;;;;2.67;2.47;;;5.50;99.90;;;;;;5070456;28;20339;-58
2021/01/14 01:28:30;;;;;;;3.03;2.83;;;5.50;99.90;;;;;;5069893;28;20445;-58
2021/01/14 01:30:56;;;;;;;2.70;2.50;;;5.70;99.90;;;;;;5070401;28;20445;-58
2021/01/14 01:33:28;;;;;;;2.67;2.47;;;5.80;99.90;;;;;;5070377;28;20804;-59
2021/01/14 01:35:54;;;;;;;3.40;3.10;;;5.50;99.90;;;;;;5070179;28;20198;-58
2021/01/14 01:38:20;;;;;;;3.75;2.70;;;5.70;99.90;;;;;;5069832;28;20217;-58
2021/01/14 01:40:54;;;;;;;3.28;2.97;;;5.80;99.90;;;;;;5070208;28;20236;-57
2021/01/14 01:43:20;;;;;;;4.25;3.90;;;5.90;99.90;;;;;;5064452;28;20238;-57
2021/01/14 01:45:46;;;;;;;2.40;2.20;;;5.50;99.90;;;;;;5068012;28;20222;-57
2021/01/14 01:48:12;;;;;;;2.90;2.60;;;5.70;99.90;;;;;;5068865;28;21174;-57
2021/01/14 01:50:37;;;;;;;2.85;2.65;;;5.70;99.90;;;;;;5069823;28;20685;-57
2021/01/14 01:53:03;;;;;;;3.17;2.87;;;5.50;99.90;;;;;;5069853;28;20193;-57
2021/01/14 01:55:29;;;;;;;2.70;2.50;;;5.70;99.90;;;;;;5074474;28;20286;-57
2021/01/14 01:57:55;;;;;;;3.17;2.73;;;5.80;99.90;;;;;;5066713;28;20438;-56
2021/01/14 02:00:21;;;;;;;3.67;2.70;;;5.90;99.90;;;;;;5049558;28;20273;-57
2021/01/14 02:02:46;;;;;;;4.75;2.65;;;5.60;99.90;;;;;;5050032;28;20202;-57
2021/01/14 02:05:12;;;;;;;2.20;2.00;;;5.80;99.90;;;;;;5066771;28;20184;-57
2021/01/14 02:08:11;;;;;;;3.23;2.93;;;6.00;99.90;;;;;;5069737;28;20273;-57
2021/01/14 02:10:59;;;;;;;2.55;2.35;;;5.80;99.90;;;;;;5062125;28;20185;-57
2021/01/14 02:13:47;;;;;;;2.63;2.42;;;5.50;99.90;;;;;;5069163;28;20234;-57
2021/01/14 02:16:13;;;;;;;3.40;2.70;;;5.70;99.90;;;;;;5066590;28;20683;-57
2021/01/14 02:18:44;;;;;;;3.13;2.47;;;5.50;99.90;;;;;;5069203;28;20197;-57
2021/01/14 02:21:14;;;;;;;2.50;2.30;;;5.60;99.90;;;;;;5069274;28;20639;-57
2021/01/14 02:24:09;;;;;;;2.65;2.45;;;5.60;99.90;;;;;;5068270;28;20209;-57
2021/01/14 02:26:37;;;;;;;2.50;2.30;;;5.60;99.90;;;;;;5069385;28;20186;-57
2021/01/14 02:29:03;;;;;;;3.15;2.85;;;5.30;99.90;;;;;;5068904;28;20252;-57
2021/01/14 02:31:29;;;;;;;3.13;2.30;;;5.60;99.90;;;;;;5076252;28;20549;-57
2021/01/14 02:33:56;;;;;;;3.53;2.30;;;5.70;99.90;;;;;;5061252;28;20212;-57
2021/01/14 02:36:23;;;;;;;2.40;2.20;;;5.50;99.90;;;;;;5056078;28;20189;-57
2021/01/14 02:38:49;;;;;;;1.90;1.80;;;5.30;99.90;;;;;;5067875;28;20213;-58
2021/01/14 02:41:15;;;;;;;2.50;2.30;;;5.20;99.90;;;;;;5068882;28;20188;-58
2021/01/14 02:43:42;;;;;;;2.03;1.83;;;5.30;99.90;;;;;;5068434;28;20459;-58
2021/01/14 02:46:09;;;;;;;2.85;2.58;;;5.50;99.90;;;;;;5068901;28;20581;-58
2021/01/14 02:48:53;;;;;;;2.00;1.90;;;5.50;99.90;;;;;;5068409;28;20214;-57
2021/01/14 02:51:26;;;;;;;2.50;2.30;;;5.30;99.90;;;;;;5068761;28;20183;-58
2021/01/14 02:53:52;;;;;;;3.05;2.40;;;5.30;99.90;;;;;;5069892;28;20205;-57
2021/01/14 02:56:20;;;;;;;2.28;2.08;;;5.20;99.90;;;;;;5067701;28;20258;-59
2021/01/14 02:58:46;;;;;;;2.47;2.25;;;5.50;99.90;;;;;;5068150;28;20212;-57
2021/01/14 03:01:11;;;;;;;2.50;2.30;;;5.00;99.90;;;;;;5068494;28;20185;-58
2021/01/14 03:03:37;;;;;;;2.20;2.00;;;5.20;99.90;;;;;;5069882;28;20223;-59
2021/01/14 03:06:03;;;;;;;3.10;2.37;;;5.20;99.90;;;;;;5069906;28;20314;-58
2021/01/14 03:08:28;;;;;;;3.10;2.50;;;5.00;99.90;;;;;;5068095;28;20702;-58
2021/01/14 03:10:54;;;;;;;2.37;2.17;;;5.20;99.90;;;;;;5060985;28;20567;-57
2021/01/14 03:13:22;;;;;;;2.73;2.47;;;5.10;99.90;;;;;;5059642;28;20217;-57
2021/01/14 03:15:48;;;;;;;2.53;2.33;;;5.20;99.90;;;;;;5065660;28;20181;-58
2021/01/14 03:18:14;;;;;;;2.60;2.30;;;5.30;99.90;;;;;;5066416;28;20210;-57
2021/01/14 03:20:39;;;;;;;3.00;2.80;;;5.30;99.90;;;;;;5068035;28;20189;-58
2021/01/14 03:23:05;;;;;;;4.33;2.43;;;5.50;99.90;;;;;;5068171;28;20274;-58
2021/01/14 03:25:31;;;;;;;2.97;2.47;;;5.50;99.90;;;;;;5068352;28;20705;-58
2021/01/14 03:27:56;;;;;;;4.00;2.70;;;5.30;99.90;;;;;;5067840;28;20436;-58
2021/01/14 03:30:22;;;;;;;2.90;2.70;;;5.50;99.90;;;;;;5066948;28;20588;-57
2021/01/14 03:32:48;;;;;;;2.85;2.28;;;5.20;99.90;;;;;;5065072;28;20189;-57
2021/01/14 03:35:14;;;;;;;2.37;2.17;;;5.10;99.90;;;;;;5058960;28;20576;-58
2021/01/14 03:37:41;;;;;;;3.00;2.70;;;5.10;99.90;;;;;;5068263;28;20192;-58
2021/01/14 03:40:09;;;;;;;3.08;2.50;;;5.50;99.90;;;;;;5067656;28;20211;-58
2021/01/14 03:42:35;;;;;;;2.78;2.50;;;5.20;99.90;;;;;;5067178;28;20197;-58
2021/01/14 03:45:01;;;;;;;3.93;2.83;;;5.40;99.90;;;;;;5067895;28;20193;-58
2021/01/14 03:47:26;;;;;;;3.33;2.60;;;5.00;99.90;;;;;;5067164;28;20513;-58
2021/01/14 03:49:52;;;;;;;3.40;2.40;;;5.20;99.90;;;;;;5067551;28;20200;-58
2021/01/14 03:52:18;;;;;;;3.40;2.73;;;5.30;99.90;;;;;;5068014;28;20638;-57
2021/01/14 03:54:46;;;;;;;2.53;2.15;;;5.10;99.90;;;;;;5067991;28;20272;-58
2021/01/14 03:57:12;;;;;;;4.07;3.10;;;4.80;99.90;;;;;;5067910;28;20190;-57
2021/01/14 03:59:37;;;;;;;3.38;2.72;;;4.90;99.90;;;;;;5067535;28;20216;-58
2021/01/14 04:02:07;;;;;;;3.30;3.00;;;5.10;99.90;;;;;;5067881;28;20196;-57
2021/01/14 04:04:43;;;;;;;3.85;3.33;;;4.90;99.90;;;;;;5067196;28;20552;-57
2021/01/14 04:07:10;;;;;;;2.72;2.53;;;4.90;99.90;;;;;;5069705;28;20181;-57
2021/01/14 04:09:36;;;;;;;4.40;3.20;;;5.20;99.90;;;;;;5071715;28;20637;-57
2021/01/14 04:12:03;;;;;;;3.08;2.80;;;4.90;99.90;;;;;;5071451;28;20185;-57
2021/01/14 04:14:29;;;;;;;4.13;3.30;;;4.70;99.90;;;;;;5068835;28;20316;-58
2021/01/14 04:16:55;;;;;;;5.60;3.25;;;4.80;99.90;;;;;;5058502;28;20193;-58
2021/01/14 04:19:21;;;;;;;4.37;3.40;;;4.70;99.90;;;;;;5071382;28;20201;-58
2021/01/14 04:21:46;;;;;;;3.70;2.70;;;4.80;99.90;;;;;;5070659;28;20185;-58
2021/01/14 04:24:12;;;;;;;3.90;3.37;;;4.90;99.90;;;;;;5071734;28;20220;-58
2021/01/14 04:26:38;;;;;;;3.93;3.27;;;5.10;99.90;;;;;;5071228;28;21016;-57
2021/01/14 04:29:04;;;;;;;5.50;3.00;;;5.00;99.90;;;;;;5071308;28;20618;-58
2021/01/14 04:31:30;;;;;;;3.47;3.17;;;4.60;99.90;;;;;;5055858;28;20447;-58
2021/01/14 04:33:56;;;;;;;3.43;2.83;;;4.60;99.90;;;;;;5071648;28;20216;-58
2021/01/14 04:36:22;;;;;;;4.60;3.78;;;4.30;99.90;;;;;;5072401;28;20185;-57
2021/01/14 04:38:48;;;;;;;3.17;2.83;;;4.50;99.90;;;;;;5069167;28;20666;-58
2021/01/14 04:41:17;;;;;;;3.43;3.07;;;4.70;99.90;;;;;;5068321;28;20434;-57
2021/01/14 04:43:43;;;;;;;4.40;3.33;;;4.60;99.90;;;;;;5060939;28;20267;-57
2021/01/14 04:46:11;;;;;;;5.10;3.30;;;4.50;99.90;;;;;;5071047;28;20189;-57
2021/01/14 04:48:49;;;;;;;3.85;3.22;;;4.40;99.90;;;;;;5070803;28;20295;-58
2021/01/14 04:51:20;;;;;;;3.95;3.45;;;4.50;99.90;;;;;;5070848;28;20212;-58
2021/01/14 04:53:48;;;;;;;4.75;3.30;;;4.40;99.90;;;;;;5070928;28;20189;-57
2021/01/14 04:56:15;;;;;;;5.38;4.03;;;4.50;99.90;;;;;;5069977;28;20216;-57
2021/01/14 04:58:45;;;;;;;4.43;3.40;;;4.80;99.90;;;;;;5070491;28;20213;-57
2021/01/14 05:01:24;;;;;;;3.60;3.30;;;4.50;99.90;;;;;;5070699;28;20537;-58
2021/01/14 05:03:51;;;;;;;5.10;3.50;;;4.60;99.90;;;;;;5070752;28;20204;-58
2021/01/14 05:06:22;;;;;;;3.88;3.58;;;4.60;99.90;;;;;;5070673;28;20209;-58
2021/01/14 05:09:05;;;;;;;5.00;3.40;;;4.50;99.90;;;;;;5070299;28;20206;-58
2021/01/14 05:11:44;;;;;;;4.68;4.18;;;4.30;99.90;;;;;;5069141;28;20185;-58
2021/01/14 05:14:10;;;;;;;4.63;4.00;;;4.50;99.90;;;;;;5069991;28;20200;-57
2021/01/14 05:16:36;;;;;;;5.17;4.20;;;4.20;99.90;;;;;;5069878;28;20193;-58
2021/01/14 05:19:02;;;;;;;7.63;3.60;;;4.40;99.90;;;;;;5065163;28;20297;-58
2021/01/14 05:21:32;;;;;;;5.30;4.13;;;4.30;99.90;;;;;;5070266;28;20445;-58
2021/01/14 05:24:15;;;;;;;5.78;3.80;;;4.30;99.90;;;;;;5070509;28;20651;-58
2021/01/14 05:26:44;;;;;;;4.55;4.15;;;3.90;99.90;;;;;;5070610;28;20288;-58
2021/01/14 05:29:15;;;;;;;4.63;4.20;;;3.80;99.90;;;;;;5069446;28;20361;-57
2021/01/14 05:31:42;;;;;;;4.80;4.30;;;3.80;99.90;;;;;;5070432;28;20276;-58
2021/01/14 05:34:08;;;;;;;5.38;4.15;;;3.90;99.90;;;;;;5070289;28;20210;-58
2021/01/14 05:36:50;;;;;;;5.63;3.53;;;4.00;99.90;;;;;;5069918;28;20709;-58
2021/01/14 05:39:17;;;;;;;5.30;4.40;;;4.10;99.90;;;;;;5067158;28;20204;-58
2021/01/14 05:41:43;;;;;;;6.53;4.68;;;3.90;99.90;;;;;;5069123;28;20654;-58
2021/01/14 05:44:09;;;;;;;4.80;4.17;;;3.80;99.90;;;;;;5069967;28;20209;-58
2021/01/14 05:46:35;;;;;;;4.73;4.00;;;4.10;99.90;;;;;;5068743;28;20879;-58
2021/01/14 05:49:03;;;;;;;4.60;4.20;;;4.00;99.90;;;;;;5069613;28;20205;-57
2021/01/14 05:51:33;;;;;;;5.38;4.88;;;3.90;99.90;;;;;;5069659;28;20185;-58
2021/01/14 05:54:14;;;;;;;5.53;4.80;;;4.10;99.90;;;;;;5069496;28;20188;-58
2021/01/14 05:57:00;;;;;;;4.60;4.20;;;4.00;99.90;;;;;;5069814;28;20184;-58
2021/01/14 05:59:40;;;;;;;6.13;5.55;;;4.10;99.90;;;;;;5069072;28;20223;-58
2021/01/14 06:02:06;;;;;;;5.18;4.68;;;4.20;99.90;;;;;;5069248;28;20192;-58
2021/01/14 06:04:31;;;;;;;5.10;4.57;;;4.50;99.90;;;;;;5068255;28;20639;-58
2021/01/14 06:07:04;;;;;;;7.00;5.20;;;4.40;99.90;;;;;;5070769;28;20181;-59
2021/01/14 06:09:41;;;;;;;4.80;4.40;;;4.30;99.90;;;;;;5069090;28;20858;-59
2021/01/14 06:12:08;;;;;;;5.57;4.72;;;4.40;99.90;;;;;;5068972;28;20177;-58
2021/01/14 06:14:34;;;;;;;4.90;4.40;;;4.60;99.90;;;;;;5069350;28;20188;-58
2021/01/14 06:17:19;;;;;;;5.30;4.90;;;4.60;99.90;;;;;;5068887;28;20185;-58
2021/01/14 06:19:45;;;;;;;4.80;4.10;;;4.20;99.90;;;;;;5066729;28;20205;-59
2021/01/14 06:22:15;;;;;;;6.20;5.57;;;4.10;99.90;;;;;;5068405;28;20254;-59
2021/01/14 06:24:41;;;;;;;5.20;4.72;;;4.20;99.90;;;;;;5068592;28;20221;-58
2021/01/14 06:27:07;;;;;;;5.35;4.80;;;3.90;99.90;;;;;;5069717;28;20185;-58
2021/01/14 06:29:38;;;;;;;5.93;4.30;;;4.40;99.90;;;;;;5067684;28;20195;-58
2021/01/14 06:32:17;;;;;;;6.03;4.25;;;4.40;99.90;;;;;;5060849;28;20174;-58
2021/01/14 06:34:44;;;;;;;6.15;4.90;;;4.30;99.90;;;;;;5066378;28;20173;-58
2021/01/14 06:37:14;;;;;;;5.07;4.68;;;4.30;99.90;;;;;;5066788;28;20219;-58
2021/01/14 06:39:59;;;;;;;4.82;4.35;;;4.20;99.90;;;;;;5068566;28;20198;-59
2021/01/14 06:42:29;;;;;;;6.15;4.30;;;4.20;99.90;;;;;;5069663;28;20226;-58
2021/01/14 06:45:00;;;;;;;4.90;4.50;;;4.40;99.90;;;;;;5068573;28;20231;-58
2021/01/14 06:47:41;;;;;;;5.30;4.80;;;4.30;99.90;;;;;;5068038;28;20209;-58
2021/01/14 06:50:19;;;;;;;5.07;4.32;;;4.40;99.90;;;;;;5068190;28;20292;-58
2021/01/14 06:52:54;;;;;;;5.45;4.72;;;4.40;99.90;;;;;;5068157;28;20300;-58
2021/01/14 06:55:22;;;;;;;5.88;4.85;;;4.80;99.90;;;;;;5067640;28;20201;-58
2021/01/14 06:58:05;;;;;;;6.68;5.03;;;4.90;99.90;;;;;;5061097;28;20734;-59
2021/01/14 07:00:33;;;;;;;6.72;4.55;;;4.90;99.90;;;;;;5056316;28;20203;-60
2021/01/14 07:03:21;;;;;;;4.80;4.40;;;4.70;99.90;;;;;;5060332;28;20210;-57
2021/01/14 07:05:56;;;;;;;4.45;3.95;;;4.50;99.90;;;;;;5068290;28;20539;-58
2021/01/14 07:08:39;;;;;;;5.35;4.85;;;4.00;99.90;;;;;;5066949;28;20213;-59
2021/01/14 07:11:16;;;;;;;4.82;4.43;;;4.20;99.90;;;;;;5051236;28;20181;-60
2021/01/14 07:13:52;;;;;;;6.50;4.75;;;3.80;99.90;;;;;;5064397;28;20184;-59
2021/01/14 07:16:19;;;;;;;5.80;5.20;;;4.30;99.90;;;;;;5063448;28;20185;-58
2021/01/14 07:18:46;;;;;;;6.45;4.72;;;4.50;99.90;;;;;;5063433;28;20209;-58
2021/01/14 07:21:33;;;;;;;6.10;5.50;;;4.60;99.90;;;;;;5054864;28;20281;-58
2021/01/14 07:24:28;;;;;;;6.13;5.53;;;4.40;99.90;;;;;;5059596;28;20336;-59
2021/01/14 07:26:59;;;;;;;5.72;5.22;;;4.10;99.90;;;;;;5053784;28;21259;-60
2021/01/14 07:29:25;;;;;;;6.22;5.53;;;4.50;99.90;;;;;;5057010;28;20302;-59
2021/01/14 07:31:52;;;;;;;7.45;6.60;;;4.00;99.90;;;;;;5055020;28;20192;-59
2021/01/14 07:34:45;;;;;;;6.97;5.78;;;4.40;99.90;;;;;;5067200;28;20181;-59
2021/01/14 07:37:12;;;;;;;7.03;6.07;;;4.50;99.90;;;;;;5064880;28;20195;-60
2021/01/14 07:39:50;;;;;;;9.20;6.65;;;4.40;99.90;;;;;;5063812;28;20209;-61
2021/01/14 07:42:29;;;;;;;6.55;5.95;;;4.30;99.90;;;;;;5058670;28;20205;-61
2021/01/14 07:45:18;;;;;;;7.70;7.00;;;4.40;99.90;;;;;;5050482;28;20184;-58
2021/01/14 07:47:44;;;;;;;6.07;5.47;;;4.20;99.90;;;;;;5058793;28;20228;-58
2021/01/14 07:50:22;;;;;;;7.00;6.30;;;4.40;99.90;;;;;;5055915;28;20650;-57
2021/01/14 07:52:49;;;;;;;7.50;6.40;;;4.30;99.90;;;;;;5066817;28;20329;-58
2021/01/14 07:55:28;;;;;;;9.00;6.00;;;4.30;99.90;;;;;;5071305;28;20219;-61
2021/01/14 07:58:11;;;;;;;8.43;6.72;;;4.10;99.90;;;;;;5066233;28;20188;-60
2021/01/14 08:00:39;;;;;;;7.20;6.43;;;4.20;99.90;;;;;;5058210;28;20189;-63
2021/01/14 08:03:15;;;;;;;7.95;5.75;;;4.20;99.90;;;;;;5055357;28;20221;-60
2021/01/14 08:05:58;;;;;;;7.25;6.03;;;4.50;99.90;;;;;;5053182;28;20704;-64
2021/01/14 08:08:37;;;;;;;7.10;6.30;;;4.40;99.90;;;;;;5060691;28;20375;-60
2021/01/14 08:11:19;;;;;;;7.43;6.63;;;4.50;99.90;;;;;;5059971;28;20658;-59
2021/01/14 08:14:06;;;;;;;7.82;6.10;;;4.40;99.90;;;;;;5052800;28;20190;-59
2021/01/14 08:16:42;;;;;;;8.45;6.10;;;4.30;99.90;;;;;;5066205;28;20214;-61
2021/01/14 08:19:21;;;;;;;7.22;6.18;;;4.10;99.90;;;;;;5059530;28;20214;-60
2021/01/14 08:21:59;;;;;;;8.75;7.78;;;4.10;99.90;;;;;;5057080;28;20851;-61
2021/01/14 08:24:38;;;;;;;10.32;6.22;;;4.20;99.90;;;;;;5058346;28;21068;-61
2021/01/14 08:27:38;;;;;;;6.80;6.10;;;3.80;99.90;;;;;;5054422;28;20212;-59
2021/01/14 08:30:13;;;;;;;7.30;6.18;;;4.40;99.90;;;;;;5056114;28;20200;-60
2021/01/14 08:32:57;;;;;;;5.32;4.68;;;4.10;99.90;;;;;;5060179;28;20185;-60
2021/01/14 08:35:31;;;;;;;6.65;5.05;;;4.10;99.90;;;;;;5055753;28;20194;-60
2021/01/14 08:37:56;;;;;;;5.90;5.28;;;4.10;99.90;;;;;;5055286;28;20189;-58
2021/01/14 08:40:22;;;;;;;5.97;5.30;;;4.20;99.90;;;;;;5058676;28;20185;-58
2021/01/14 08:43:08;;;;;;;6.67;5.10;;;4.20;99.90;;;;;;5059336;28;20208;-60
2021/01/14 08:45:54;;;;;;;6.82;5.53;;;3.90;99.90;;;;;;5054485;28;20649;-59
2021/01/14 08:48:25;;;;;;;7.65;5.63;;;4.30;99.90;;;;;;5060893;28;20209;-60
2021/01/14 08:50:54;;;;;;;10.57;5.20;;;4.40;99.90;;;;;;5065529;28;20181;-60
2021/01/14 08:53:19;;;;;;;7.25;5.47;;;4.30;99.90;;;;;;5060359;28;20186;-59
2021/01/14 08:56:03;;;;;;;10.80;6.93;;;4.40;99.90;;;;;;5059808;28;20226;-60
2021/01/14 08:58:48;;;;;;;8.20;6.13;;;4.70;99.90;;;;;;5057577;28;20271;-62
2021/01/14 09:01:22;;;;;;;8.32;5.80;;;5.00;99.90;;;;;;5063759;28;20549;-61
2021/01/14 09:03:49;;;;;;;7.72;5.38;;;4.80;99.90;;;;;;5062008;28;20197;-59
2021/01/14 09:06:32;;;;;;;5.50;4.85;;;4.90;99.90;;;;;;5058682;28;20216;-59
2021/01/14 09:08:59;;;;;;;7.95;5.72;;;4.80;99.90;;;;;;5064256;28;20213;-60
2021/01/14 09:11:28;;;;;;;7.60;5.40;;;4.60;99.90;;;;;;5061763;28;20189;-59
2021/01/14 09:14:10;;;;;;;7.07;5.93;;;4.70;99.90;;;;;;5054238;28;20265;-61
2021/01/14 09:16:37;;;;;;;6.45;5.57;;;4.50;99.90;;;;;;5084487;28;20247;-60
2021/01/14 09:19:13;;;;;;;7.70;6.82;;;4.70;99.90;;;;;;5063787;28;20204;-60
2021/01/14 09:21:39;;;;;;;7.60;6.80;;;4.70;99.90;;;;;;5060598;28;20184;-61
2021/01/14 09:24:13;;;;;;;9.57;6.10;;;4.60;99.90;;;;;;5054305;28;20656;-59
2021/01/14 09:26:43;;;;;;;6.80;6.10;;;4.60;99.90;;;;;;5058085;28;20177;-57
2021/01/14 09:29:11;;;;;;;6.55;5.13;;;4.50;99.90;;;;;;5069590;28;20205;-58
2021/01/14 09:31:38;;;;;;;8.27;5.50;;;4.40;99.90;;;;;;5066327;28;20177;-59
2021/01/14 09:34:04;;;;;;;6.40;5.43;;;4.30;99.90;;;;;;5055295;28;20744;-58
2021/01/14 09:36:33;;;;;;;7.90;5.33;;;4.50;99.90;;;;;;5068355;28;20271;-58
2021/01/14 09:39:01;;;;;;;6.07;5.40;;;4.60;99.90;;;;;;5064012;28;20711;-58
2021/01/14 09:41:37;;;;;;;7.53;6.60;;;4.50;99.90;;;;;;5066334;28;20186;-57
2021/01/14 09:44:05;;;;;;;6.22;5.15;;;4.70;99.90;;;;;;5057812;28;20209;-60
2021/01/14 09:46:44;;;;;;;11.02;6.13;;;4.50;99.90;;;;;;5066356;28;20231;-58
2021/01/14 09:49:12;;;;;;;6.15;5.55;;;4.80;99.90;;;;;;5064767;28;20304;-61
2021/01/14 09:51:39;;;;;;;10.35;5.53;;;4.70;99.90;;;;;;5063359;28;20223;-59
2021/01/14 09:54:10;;;;;;;7.38;6.10;;;4.50;99.90;;;;;;5063745;28;20193;-59
2021/01/14 09:56:56;;;;;;;7.20;6.38;;;4.70;99.90;;;;;;5059657;28;20192;-60
2021/01/14 09:59:28;;;;;;;8.57;6.88;;;5.10;99.90;;;;;;5064314;28;20292;-60
2021/01/14 10:02:00;;;;;;;11.90;6.70;;;5.00;99.90;;;;;;5066997;28;20185;-60
2021/01/14 10:04:27;;;;;;;5.38;4.55;;;4.90;99.90;;;;;;5054144;28;20301;-61
2021/01/14 10:07:02;;;;;;;8.68;5.25;;;5.00;99.90;;;;;;5054451;28;20240;-60
2021/01/14 10:09:28;;;;;;;14.75;5.60;;;4.80;99.90;;;;;;5051462;28;20228;-60
2021/01/14 10:11:54;;;;;;;6.25;4.97;;;4.30;99.90;;;;;;5052173;28;20178;-57
2021/01/14 10:14:22;;;;;;;5.00;4.60;;;4.70;99.90;;;;;;5052580;28;20496;-60
2021/01/14 10:16:48;;;;;;;5.30;4.65;;;4.80;99.90;;;;;;5060851;28;20193;-60
2021/01/14 10:19:18;;;;;;;5.80;4.35;;;4.70;99.90;;;;;;5062904;28;20701;-62
2021/01/14 10:21:45;;;;;;;4.53;3.28;;;4.90;99.90;;;;;;5055394;28;20186;-58
2021/01/14 10:24:19;;;;;;;10.05;7.47;;;4.70;99.90;;;;;;5060813;28;20223;-57
2021/01/14 10:26:45;;;;;;;5.63;4.72;;;4.80;99.90;;;;;;5050251;28;20271;-57
2021/01/14 10:29:27;;;;;;;5.70;4.57;;;4.70;99.90;;;;;;5059630;28;20295;-59
2021/01/14 10:32:00;;;;;;;6.60;4.38;;;4.70;99.90;;;;;;5060587;28;20504;-60
2021/01/14 10:34:44;;;;;;;8.02;4.50;;;4.90;99.90;;;;;;5049647;28;20179;-61
2021/01/14 10:37:27;;;;;;;5.03;4.60;;;4.60;99.90;;;;;;5066039;28;20280;-60
2021/01/14 10:39:55;;;;;;;7.72;4.57;;;4.70;99.90;;;;;;5066915;28;20201;-60
2021/01/14 10:42:39;;;;;;;4.68;4.07;;;4.60;99.90;;;;;;5065286;28;20286;-59
2021/01/14 10:45:07;;;;;;;11.00;5.10;;;4.70;99.90;;;;;;5066773;28;20639;-58
2021/01/14 10:47:35;;;;;;;7.93;6.05;;;4.50;99.90;;;;;;5062341;28;20538;-55
2021/01/14 10:50:17;;;;;;;5.40;4.60;;;4.40;99.90;;;;;;5063892;28;20698;-58
2021/01/14 10:53:03;;;;;;;4.93;4.43;;;4.50;99.90;;;;;;5065158;28;20275;-58
2021/01/14 10:55:30;;;;;;;8.50;5.25;;;4.60;99.90;;;;;;5059026;28;20599;-59
2021/01/14 10:57:57;;;;;;;6.22;4.97;;;4.70;99.90;;;;;;5067265;28;20651;-58
2021/01/14 11:00:24;;;;;;;7.10;4.70;;;4.90;99.90;;;;;;5061134;28;20186;-59
2021/01/14 11:03:05;;;;;;;5.18;4.10;;;4.40;99.90;;;;;;5062728;28;20284;-58
2021/01/14 11:05:46;;;;;;;5.10;4.38;;;4.90;99.90;;;;;;5057965;28;20182;-59
2021/01/14 11:08:14;;;;;;;5.95;4.50;;;5.00;99.90;;;;;;5063383;28;20700;-61
2021/01/14 11:10:44;;;;;;;6.07;5.32;;;5.00;99.90;;;;;;5059646;28;20199;-60
2021/01/14 11:13:12;;;;;;;7.75;5.30;;;5.00;99.90;;;;;;5067687;28;20239;-61
2021/01/14 11:15:39;;;;;;;6.40;5.22;;;4.80;99.90;;;;;;5065475;28;20190;-61
2021/01/14 11:18:07;;;;;;;9.75;5.45;;;4.90;99.90;;;;;;5066746;28;20185;-60
2021/01/14 11:20:33;;;;;;;8.95;5.35;;;4.60;99.90;;;;;;5059935;28;20752;-60
2021/01/14 11:22:58;;;;;;;6.88;5.25;;;4.60;99.90;;;;;;5066341;28;20240;-61
2021/01/14 11:25:24;;;;;;;5.60;4.97;;;4.70;99.90;;;;;;5059476;28;20308;-60
2021/01/14 11:27:51;;;;;;;5.20;4.33;;;4.60;99.90;;;;;;5064478;28;20222;-59
2021/01/14 11:30:16;;;;;;;7.03;4.65;;;4.70;99.90;;;;;;5067265;28;20512;-58
2021/01/14 11:32:42;;;;;;;9.20;5.97;;;4.80;99.90;;;;;;5061115;28;20817;-57
2021/01/14 11:35:09;;;;;;;6.37;5.37;;;4.70;99.90;;;;;;5047699;28;20441;-57
2021/01/14 11:37:35;;;;;;;7.40;5.05;;;4.70;99.90;;;;;;5065140;28;20251;-58
2021/01/14 11:40:00;;;;;;;6.87;5.60;;;4.80;99.90;;;;;;5064227;28;20206;-58
2021/01/14 11:42:27;;;;;;;6.93;5.10;;;4.70;99.90;;;;;;5057760;28;20465;-59
2021/01/14 11:44:53;;;;;;;7.03;5.22;;;4.90;99.90;;;;;;5062525;28;20187;-59
2021/01/14 11:47:19;;;;;;;9.23;6.35;;;4.70;99.90;;;;;;5058544;28;20234;-60
2021/01/14 11:49:44;;;;;;;7.47;5.93;;;4.70;99.90;;;;;;5063926;28;20288;-60
2021/01/14 11:52:10;;;;;;;7.97;5.13;;;4.40;99.90;;;;;;5064886;28;20174;-59
2021/01/14 11:54:35;;;;;;;6.80;5.47;;;4.90;99.90;;;;;;5063475;28;20186;-60
2021/01/14 11:57:02;;;;;;;5.33;4.83;;;5.00;99.90;;;;;;5065340;28;20190;-60
2021/01/14 11:59:27;;;;;;;6.65;5.32;;;4.90;99.90;;;;;;5052324;28;20213;-61
2021/01/14 12:01:56;;;;;;;5.60;5.10;;;4.80;99.90;;;;;;5067106;28;20566;-59
2021/01/14 12:04:22;;;;;;;6.68;5.30;;;5.00;99.90;;;;;;5055128;28;20284;-59
2021/01/14 12:06:52;;;;;;;7.33;5.67;;;4.80;99.90;;;;;;5065704;28;20289;-59
2021/01/14 12:09:17;;;;;;;5.93;4.75;;;5.10;99.90;;;;;;5060193;28;20209;-60
2021/01/14 12:11:43;;;;;;;8.20;5.80;;;5.00;99.90;;;;;;5060482;28;20182;-59
2021/01/14 12:14:09;;;;;;;6.57;4.33;;;5.10;99.90;;;;;;5057280;28;20194;-58
2021/01/14 12:16:35;;;;;;;8.60;5.17;;;4.80;99.90;;;;;;5048967;28;20185;-58
2021/01/14 12:19:01;;;;;;;7.05;4.60;;;5.10;99.90;;;;;;5066237;28;20810;-58
2021/01/14 12:21:26;;;;;;;6.10;4.93;;;4.90;99.90;;;;;;5066882;28;20695;-58
2021/01/14 12:23:52;;;;;;;7.23;5.23;;;4.80;99.90;;;;;;5054272;28;20221;-58
2021/01/14 12:26:19;;;;;;;8.23;5.17;;;4.90;99.90;;;;;;5063777;28;20188;-59
2021/01/14 12:28:45;;;;;;;5.15;3.92;;;5.20;99.90;;;;;;5060378;28;20241;-58
2021/01/14 12:31:11;;;;;;;5.33;4.47;;;5.00;99.90;;;;;;5067146;28;20210;-59
2021/01/14 12:33:36;;;;;;;5.30;4.70;;;5.10;99.90;;;;;;5062340;28;20431;-58
2021/01/14 12:36:02;;;;;;;4.43;4.00;;;5.30;99.90;;;;;;5052667;28;20230;-60
2021/01/14 12:38:28;;;;;;;4.65;4.15;;;5.50;99.90;;;;;;5053989;28;20275;-59
2021/01/14 12:40:54;;;;;;;5.15;4.35;;;5.40;99.30;;;;;;5067312;28;20228;-59
2021/01/14 12:43:19;;;;;;;7.30;4.17;;;5.40;99.70;;;;;;5057683;28;20295;-59
2021/01/14 12:45:45;;;;;;;7.77;5.37;;;5.30;99.60;;;;;;5063584;28;20542;-59
2021/01/14 12:48:11;;;;;;;5.17;4.70;;;5.20;99.90;;;;;;5056036;28;20221;-58
2021/01/14 12:50:41;;;;;;;4.97;4.13;;;4.80;99.50;;;;;;5067587;28;20544;-57
2021/01/14 12:53:07;;;;;;;10.00;8.45;;;5.00;99.90;;;;;;5066237;28;20190;-60
2021/01/14 12:55:33;;;;;;;5.35;4.40;;;4.80;99.90;;;;;;5044925;28;20341;-59
2021/01/14 12:57:58;;;;;;;5.20;4.10;;;5.00;99.90;;;;;;5062198;28;20343;-59
2021/01/14 13:00:24;;;;;;;4.90;4.40;;;5.10;99.90;;;;;;5050731;28;20556;-60
2021/01/14 13:02:50;;;;;;;6.37;4.97;;;4.90;99.90;;;;;;5063642;28;20217;-61
2021/01/14 13:05:18;;;;;;;7.90;4.57;;;5.10;99.90;;;;;;5057343;28;20447;-61
2021/01/14 13:07:44;;;;;;;6.85;5.00;;;4.80;99.90;;;;;;5050508;28;20223;-60
2021/01/14 13:10:10;;;;;;;26.83;18.93;;;4.80;99.90;;;;;;5062578;28;20694;-59
2021/01/14 13:12:36;;;;;;;27.33;17.23;;;5.00;99.90;;;;;;5067876;28;20439;-58
2021/01/14 13:15:03;;;;;;;7.30;4.27;;;5.20;99.90;;;;;;5070061;28;20181;-57